sensor_id;sensor_type;location;lat;lon;timestamp;pressure;altitude;pressure_sealevel;temperature
71081;BMP180;58740;50.672;18.690;2022-08-21T00:00:30;98509.20;;;22.48
71081;BMP180;58740;50.672;18.690;2022-08-21T00:03:10;98511.80;;;22.42
71081;BMP180;58740;50.672;18.690;2022-08-21T00:05:48;98506.00;;;22.40
71081;BMP180;58740;50.672;18.690;2022-08-21T00:08:20;98504.00;;;22.40
71081;BMP180;58740;50.672;18.690;2022-08-21T00:10:48;98505.00;;;22.40
71081;BMP180;58740;50.672;18.690;2022-08-21T00:13:18;98512.60;;;22.40
71081;BMP180;58740;50.672;18.690;2022-08-21T00:15:49;98514.20;;;22.40
71081;BMP180;58740;50.672;18.690;2022-08-21T00:18:18;98514.40;;;22.40
71081;BMP180;58740;50.672;18.690;2022-08-21T00:20:47;98512.80;;;22.40
71081;BMP180;58740;50.672;18.690;2022-08-21T00:23:15;98515.40;;;22.40
71081;BMP180;58740;50.672;18.690;2022-08-21T00:25:44;98511.40;;;22.40
71081;BMP180;58740;50.672;18.690;2022-08-21T00:28:13;98510.20;;;22.40
71081;BMP180;58740;50.672;18.690;2022-08-21T00:30:42;98513.80;;;22.40
71081;BMP180;58740;50.672;18.690;2022-08-21T00:33:11;98516.40;;;22.40
71081;BMP180;58740;50.672;18.690;2022-08-21T00:35:42;98519.20;;;22.40
71081;BMP180;58740;50.672;18.690;2022-08-21T00:38:10;98516.60;;;22.40
71081;BMP180;58740;50.672;18.690;2022-08-21T00:40:48;98512.80;;;22.40
71081;BMP180;58740;50.672;18.690;2022-08-21T00:43:21;98517.20;;;22.40
71081;BMP180;58740;50.672;18.690;2022-08-21T00:45:50;98519.40;;;22.40
71081;BMP180;58740;50.672;18.690;2022-08-21T00:48:19;98521.40;;;22.40
71081;BMP180;58740;50.672;18.690;2022-08-21T00:50:58;98524.00;;;22.40
71081;BMP180;58740;50.672;18.690;2022-08-21T00:53:28;98522.40;;;22.40
71081;BMP180;58740;50.672;18.690;2022-08-21T00:55:59;98524.40;;;22.40
71081;BMP180;58740;50.672;18.690;2022-08-21T00:58:31;98537.40;;;22.40
71081;BMP180;58740;50.672;18.690;2022-08-21T01:01:01;98542.00;;;22.40
71081;BMP180;58740;50.672;18.690;2022-08-21T01:03:36;98541.00;;;22.40
71081;BMP180;58740;50.672;18.690;2022-08-21T01:06:05;98538.20;;;22.40
71081;BMP180;58740;50.672;18.690;2022-08-21T01:08:34;98541.00;;;22.40
71081;BMP180;58740;50.672;18.690;2022-08-21T01:11:03;98542.00;;;22.40
71081;BMP180;58740;50.672;18.690;2022-08-21T01:13:36;98534.00;;;22.40
71081;BMP180;58740;50.672;18.690;2022-08-21T01:16:08;98530.80;;;22.40
71081;BMP180;58740;50.672;18.690;2022-08-21T01:18:37;98532.20;;;22.40
71081;BMP180;58740;50.672;18.690;2022-08-21T01:21:15;98521.80;;;22.40
71081;BMP180;58740;50.672;18.690;2022-08-21T01:23:50;98523.20;;;22.40
71081;BMP180;58740;50.672;18.690;2022-08-21T01:26:25;98516.00;;;22.40
71081;BMP180;58740;50.672;18.690;2022-08-21T01:32:10;98515.60;;;22.40
71081;BMP180;58740;50.672;18.690;2022-08-21T01:34:42;98512.00;;;22.40
71081;BMP180;58740;50.672;18.690;2022-08-21T01:37:12;98504.20;;;22.40
71081;BMP180;58740;50.672;18.690;2022-08-21T01:39:41;98500.80;;;22.40
71081;BMP180;58740;50.672;18.690;2022-08-21T01:42:10;98496.60;;;22.40
71081;BMP180;58740;50.672;18.690;2022-08-21T01:44:38;98495.40;;;22.40
71081;BMP180;58740;50.672;18.690;2022-08-21T01:47:09;98491.40;;;22.40
71081;BMP180;58740;50.672;18.690;2022-08-21T01:49:39;98489.80;;;22.40
71081;BMP180;58740;50.672;18.690;2022-08-21T01:52:08;98486.00;;;22.40
71081;BMP180;58740;50.672;18.690;2022-08-21T01:54:38;98476.40;;;22.40
71081;BMP180;58740;50.672;18.690;2022-08-21T01:57:07;98470.40;;;22.40
71081;BMP180;58740;50.672;18.690;2022-08-21T01:59:36;98468.60;;;22.40
71081;BMP180;58740;50.672;18.690;2022-08-21T02:02:04;98458.00;;;22.40
71081;BMP180;58740;50.672;18.690;2022-08-21T02:04:33;98444.20;;;22.40
71081;BMP180;58740;50.672;18.690;2022-08-21T02:07:01;98446.20;;;22.40
71081;BMP180;58740;50.672;18.690;2022-08-21T02:09:29;98445.80;;;22.40
71081;BMP180;58740;50.672;18.690;2022-08-21T02:11:57;98444.40;;;22.40
71081;BMP180;58740;50.672;18.690;2022-08-21T02:14:25;98444.60;;;22.36
71081;BMP180;58740;50.672;18.690;2022-08-21T02:17:00;98444.80;;;22.40
71081;BMP180;58740;50.672;18.690;2022-08-21T02:19:37;98441.00;;;22.40
71081;BMP180;58740;50.672;18.690;2022-08-21T02:22:11;98440.00;;;22.30
71081;BMP180;58740;50.672;18.690;2022-08-21T02:24:39;98439.00;;;22.30
71081;BMP180;58740;50.672;18.690;2022-08-21T02:27:24;98433.20;;;22.20
71081;BMP180;58740;50.672;18.690;2022-08-21T02:29:57;98434.20;;;22.20
71081;BMP180;58740;50.672;18.690;2022-08-21T02:32:25;98427.20;;;22.20
71081;BMP180;58740;50.672;18.690;2022-08-21T02:34:53;98426.60;;;22.20
71081;BMP180;58740;50.672;18.690;2022-08-21T02:37:22;98419.20;;;22.20
71081;BMP180;58740;50.672;18.690;2022-08-21T02:39:51;98418.00;;;22.20
71081;BMP180;58740;50.672;18.690;2022-08-21T02:42:19;98418.60;;;22.20
71081;BMP180;58740;50.672;18.690;2022-08-21T02:44:47;98420.00;;;22.20
71081;BMP180;58740;50.672;18.690;2022-08-21T02:47:15;98423.80;;;22.20
71081;BMP180;58740;50.672;18.690;2022-08-21T02:49:43;98418.40;;;22.20
71081;BMP180;58740;50.672;18.690;2022-08-21T02:52:10;98414.80;;;22.20
71081;BMP180;58740;50.672;18.690;2022-08-21T02:54:39;98412.00;;;22.20
71081;BMP180;58740;50.672;18.690;2022-08-21T02:57:07;98402.20;;;22.20
71081;BMP180;58740;50.672;18.690;2022-08-21T02:59:35;98391.60;;;22.20
71081;BMP180;58740;50.672;18.690;2022-08-21T03:02:03;98390.00;;;22.20
71081;BMP180;58740;50.672;18.690;2022-08-21T03:04:31;98391.20;;;22.20
71081;BMP180;58740;50.672;18.690;2022-08-21T03:06:59;98390.20;;;22.20
71081;BMP180;58740;50.672;18.690;2022-08-21T03:09:28;98392.80;;;22.20
71081;BMP180;58740;50.672;18.690;2022-08-21T03:11:55;98393.80;;;22.20
71081;BMP180;58740;50.672;18.690;2022-08-21T03:14:23;98398.40;;;22.20
71081;BMP180;58740;50.672;18.690;2022-08-21T03:16:51;98399.40;;;22.26
71081;BMP180;58740;50.672;18.690;2022-08-21T03:19:19;98393.80;;;22.30
71081;BMP180;58740;50.672;18.690;2022-08-21T03:21:46;98396.80;;;22.30
71081;BMP180;58740;50.672;18.690;2022-08-21T03:24:14;98401.00;;;22.30
71081;BMP180;58740;50.672;18.690;2022-08-21T03:26:45;98410.40;;;22.30
71081;BMP180;58740;50.672;18.690;2022-08-21T03:29:13;98412.20;;;22.30
71081;BMP180;58740;50.672;18.690;2022-08-21T03:31:40;98411.00;;;22.30
71081;BMP180;58740;50.672;18.690;2022-08-21T03:34:08;98405.00;;;22.30
71081;BMP180;58740;50.672;18.690;2022-08-21T03:36:36;98413.20;;;22.30
71081;BMP180;58740;50.672;18.690;2022-08-21T03:39:03;98407.60;;;22.30
71081;BMP180;58740;50.672;18.690;2022-08-21T03:41:31;98410.40;;;22.30
71081;BMP180;58740;50.672;18.690;2022-08-21T03:43:59;98408.80;;;22.30
71081;BMP180;58740;50.672;18.690;2022-08-21T03:46:27;98415.40;;;22.32
71081;BMP180;58740;50.672;18.690;2022-08-21T03:48:55;98414.60;;;22.30
71081;BMP180;58740;50.672;18.690;2022-08-21T03:51:22;98418.00;;;22.40
71081;BMP180;58740;50.672;18.690;2022-08-21T03:53:51;98422.20;;;22.40
71081;BMP180;58740;50.672;18.690;2022-08-21T03:56:19;98422.20;;;22.40
71081;BMP180;58740;50.672;18.690;2022-08-21T03:58:47;98422.00;;;22.40
71081;BMP180;58740;50.672;18.690;2022-08-21T04:01:15;98426.00;;;22.40
71081;BMP180;58740;50.672;18.690;2022-08-21T04:03:43;98426.80;;;22.40
71081;BMP180;58740;50.672;18.690;2022-08-21T04:06:10;98426.60;;;22.40
71081;BMP180;58740;50.672;18.690;2022-08-21T04:08:38;98425.20;;;22.40
71081;BMP180;58740;50.672;18.690;2022-08-21T04:11:07;98428.80;;;22.40
71081;BMP180;58740;50.672;18.690;2022-08-21T04:13:35;98423.40;;;22.40
71081;BMP180;58740;50.672;18.690;2022-08-21T04:16:09;98425.40;;;22.40
71081;BMP180;58740;50.672;18.690;2022-08-21T04:18:37;98421.60;;;22.40
71081;BMP180;58740;50.672;18.690;2022-08-21T04:21:07;98423.80;;;22.36
71081;BMP180;58740;50.672;18.690;2022-08-21T04:23:37;98421.40;;;22.30
71081;BMP180;58740;50.672;18.690;2022-08-21T04:26:05;98416.20;;;22.30
71081;BMP180;58740;50.672;18.690;2022-08-21T04:28:34;98419.80;;;22.30
71081;BMP180;58740;50.672;18.690;2022-08-21T04:31:02;98420.40;;;22.30
71081;BMP180;58740;50.672;18.690;2022-08-21T04:33:29;98419.00;;;22.32
71081;BMP180;58740;50.672;18.690;2022-08-21T04:35:57;98421.20;;;22.30
71081;BMP180;58740;50.672;18.690;2022-08-21T04:38:25;98417.60;;;22.30
71081;BMP180;58740;50.672;18.690;2022-08-21T04:41:03;98415.20;;;22.30
71081;BMP180;58740;50.672;18.690;2022-08-21T04:43:34;98419.20;;;22.30
71081;BMP180;58740;50.672;18.690;2022-08-21T04:46:02;98419.80;;;22.30
71081;BMP180;58740;50.672;18.690;2022-08-21T04:48:30;98422.20;;;22.30
71081;BMP180;58740;50.672;18.690;2022-08-21T04:51:17;98424.00;;;22.30
71081;BMP180;58740;50.672;18.690;2022-08-21T04:53:52;98424.20;;;22.30
71081;BMP180;58740;50.672;18.690;2022-08-21T04:56:25;98420.80;;;22.30
71081;BMP180;58740;50.672;18.690;2022-08-21T04:58:57;98420.20;;;22.30
71081;BMP180;58740;50.672;18.690;2022-08-21T05:01:29;98422.20;;;22.30
71081;BMP180;58740;50.672;18.690;2022-08-21T05:04:01;98423.00;;;22.30
71081;BMP180;58740;50.672;18.690;2022-08-21T05:06:34;98420.80;;;22.30
71081;BMP180;58740;50.672;18.690;2022-08-21T05:09:03;98425.80;;;22.20
71081;BMP180;58740;50.672;18.690;2022-08-21T05:11:32;98427.80;;;22.20
71081;BMP180;58740;50.672;18.690;2022-08-21T05:14:00;98436.60;;;22.24
71081;BMP180;58740;50.672;18.690;2022-08-21T05:16:29;98436.00;;;22.20
71081;BMP180;58740;50.672;18.690;2022-08-21T05:19:06;98441.60;;;22.10
71081;BMP180;58740;50.672;18.690;2022-08-21T05:21:36;98448.40;;;22.12
71081;BMP180;58740;50.672;18.690;2022-08-21T05:24:05;98455.20;;;22.10
71081;BMP180;58740;50.672;18.690;2022-08-21T05:26:33;98456.60;;;22.14
71081;BMP180;58740;50.672;18.690;2022-08-21T05:29:15;98456.80;;;22.20
71081;BMP180;58740;50.672;18.690;2022-08-21T05:31:47;98460.40;;;22.20
71081;BMP180;58740;50.672;18.690;2022-08-21T05:34:20;98459.80;;;22.20
71081;BMP180;58740;50.672;18.690;2022-08-21T05:36:48;98467.60;;;22.20
71081;BMP180;58740;50.672;18.690;2022-08-21T05:39:16;98472.20;;;22.20
71081;BMP180;58740;50.672;18.690;2022-08-21T05:41:44;98471.60;;;22.20
71081;BMP180;58740;50.672;18.690;2022-08-21T05:44:12;98475.80;;;22.20
71081;BMP180;58740;50.672;18.690;2022-08-21T05:46:40;98476.00;;;22.20
71081;BMP180;58740;50.672;18.690;2022-08-21T05:49:07;98472.60;;;22.20
71081;BMP180;58740;50.672;18.690;2022-08-21T05:51:35;98478.60;;;22.20
71081;BMP180;58740;50.672;18.690;2022-08-21T05:54:03;98479.60;;;22.20
71081;BMP180;58740;50.672;18.690;2022-08-21T05:56:32;98481.60;;;22.20
71081;BMP180;58740;50.672;18.690;2022-08-21T05:58:59;98485.60;;;22.20
71081;BMP180;58740;50.672;18.690;2022-08-21T06:01:27;98489.20;;;22.22
71081;BMP180;58740;50.672;18.690;2022-08-21T06:03:58;98493.00;;;22.30
71081;BMP180;58740;50.672;18.690;2022-08-21T06:06:27;98497.80;;;22.28
71081;BMP180;58740;50.672;18.690;2022-08-21T06:08:55;98500.80;;;22.30
71081;BMP180;58740;50.672;18.690;2022-08-21T06:11:23;98508.20;;;22.30
71081;BMP180;58740;50.672;18.690;2022-08-21T06:13:55;98512.20;;;22.30
71081;BMP180;58740;50.672;18.690;2022-08-21T06:16:25;98511.80;;;22.30
71081;BMP180;58740;50.672;18.690;2022-08-21T06:18:53;98515.40;;;22.30
71081;BMP180;58740;50.672;18.690;2022-08-21T06:21:27;98519.00;;;22.30
71081;BMP180;58740;50.672;18.690;2022-08-21T06:23:54;98525.60;;;22.30
71081;BMP180;58740;50.672;18.690;2022-08-21T06:26:23;98526.60;;;22.30
71081;BMP180;58740;50.672;18.690;2022-08-21T06:28:51;98539.60;;;22.30
71081;BMP180;58740;50.672;18.690;2022-08-21T06:31:24;98540.80;;;22.24
71081;BMP180;58740;50.672;18.690;2022-08-21T06:33:52;98541.00;;;22.20
71081;BMP180;58740;50.672;18.690;2022-08-21T06:36:21;98544.40;;;22.18
71081;BMP180;58740;50.672;18.690;2022-08-21T06:38:49;98546.40;;;22.10
71081;BMP180;58740;50.672;18.690;2022-08-21T06:41:19;98551.00;;;22.10
71081;BMP180;58740;50.672;18.690;2022-08-21T06:43:55;98551.00;;;22.00
71081;BMP180;58740;50.672;18.690;2022-08-21T06:46:27;98546.60;;;22.00
71081;BMP180;58740;50.672;18.690;2022-08-21T06:48:56;98549.80;;;21.90
71081;BMP180;58740;50.672;18.690;2022-08-21T06:51:24;98549.80;;;21.90
71081;BMP180;58740;50.672;18.690;2022-08-21T06:53:56;98550.00;;;21.80
71081;BMP180;58740;50.672;18.690;2022-08-21T06:56:26;98554.60;;;21.80
71081;BMP180;58740;50.672;18.690;2022-08-21T06:58:53;98551.60;;;21.70
71081;BMP180;58740;50.672;18.690;2022-08-21T07:01:25;98543.60;;;21.70
71081;BMP180;58740;50.672;18.690;2022-08-21T07:03:54;98539.00;;;21.70
71081;BMP180;58740;50.672;18.690;2022-08-21T07:06:22;98544.60;;;21.70
71081;BMP180;58740;50.672;18.690;2022-08-21T07:08:49;98543.80;;;21.70
71081;BMP180;58740;50.672;18.690;2022-08-21T07:11:22;98542.20;;;21.70
71081;BMP180;58740;50.672;18.690;2022-08-21T07:13:51;98538.80;;;21.70
71081;BMP180;58740;50.672;18.690;2022-08-21T07:16:21;98530.40;;;21.72
71081;BMP180;58740;50.672;18.690;2022-08-21T07:18:49;98528.60;;;21.80
71081;BMP180;58740;50.672;18.690;2022-08-21T07:21:17;98529.00;;;21.74
71081;BMP180;58740;50.672;18.690;2022-08-21T07:23:51;98525.40;;;21.76
71081;BMP180;58740;50.672;18.690;2022-08-21T07:26:22;98523.40;;;21.80
71081;BMP180;58740;50.672;18.690;2022-08-21T07:28:51;98516.40;;;21.80
71081;BMP180;58740;50.672;18.690;2022-08-21T07:31:23;98521.40;;;21.80
71081;BMP180;58740;50.672;18.690;2022-08-21T07:33:52;98523.20;;;21.80
71081;BMP180;58740;50.672;18.690;2022-08-21T07:36:21;98520.00;;;21.80
71081;BMP180;58740;50.672;18.690;2022-08-21T07:38:49;98515.20;;;21.80
71081;BMP180;58740;50.672;18.690;2022-08-21T07:41:26;98519.80;;;21.90
71081;BMP180;58740;50.672;18.690;2022-08-21T07:43:57;98513.40;;;21.90
71081;BMP180;58740;50.672;18.690;2022-08-21T07:46:25;98508.60;;;21.90
71081;BMP180;58740;50.672;18.690;2022-08-21T07:48:54;98507.60;;;21.94
71081;BMP180;58740;50.672;18.690;2022-08-21T07:51:27;98507.80;;;22.00
71081;BMP180;58740;50.672;18.690;2022-08-21T07:53:58;98504.60;;;22.00
71081;BMP180;58740;50.672;18.690;2022-08-21T07:56:29;98503.60;;;22.10
71081;BMP180;58740;50.672;18.690;2022-08-21T07:58:57;98506.40;;;22.18
71081;BMP180;58740;50.672;18.690;2022-08-21T08:01:25;98504.20;;;22.20
71081;BMP180;58740;50.672;18.690;2022-08-21T08:03:53;98506.80;;;22.30
71081;BMP180;58740;50.672;18.690;2022-08-21T08:06:22;98507.20;;;22.40
71081;BMP180;58740;50.672;18.690;2022-08-21T08:08:50;98507.40;;;22.50
71081;BMP180;58740;50.672;18.690;2022-08-21T08:11:18;98502.20;;;22.54
71081;BMP180;58740;50.672;18.690;2022-08-21T08:13:50;98500.00;;;22.60
71081;BMP180;58740;50.672;18.690;2022-08-21T08:16:19;98503.40;;;22.62
71081;BMP180;58740;50.672;18.690;2022-08-21T08:18:47;98505.60;;;22.68
71081;BMP180;58740;50.672;18.690;2022-08-21T08:21:15;98510.20;;;22.60
71081;BMP180;58740;50.672;18.690;2022-08-21T08:23:43;98509.80;;;22.70
71081;BMP180;58740;50.672;18.690;2022-08-21T08:26:12;98506.00;;;22.70
71081;BMP180;58740;50.672;18.690;2022-08-21T08:28:43;98503.00;;;22.72
71081;BMP180;58740;50.672;18.690;2022-08-21T08:31:11;98503.60;;;22.80
71081;BMP180;58740;50.672;18.690;2022-08-21T08:33:39;98506.60;;;22.80
71081;BMP180;58740;50.672;18.690;2022-08-21T08:36:15;98500.60;;;22.84
71081;BMP180;58740;50.672;18.690;2022-08-21T08:38:46;98502.00;;;22.90
71081;BMP180;58740;50.672;18.690;2022-08-21T08:41:20;98497.00;;;22.90
71081;BMP180;58740;50.672;18.690;2022-08-21T08:44:00;98493.60;;;22.90
71081;BMP180;58740;50.672;18.690;2022-08-21T08:46:51;98494.00;;;22.84
71081;BMP180;58740;50.672;18.690;2022-08-21T08:49:31;98492.20;;;22.90
71081;BMP180;58740;50.672;18.690;2022-08-21T08:52:30;98490.00;;;22.90
71081;BMP180;58740;50.672;18.690;2022-08-21T08:55:08;98493.60;;;22.90
71081;BMP180;58740;50.672;18.690;2022-08-21T08:57:41;98494.60;;;22.90
71081;BMP180;58740;50.672;18.690;2022-08-21T09:00:13;98498.00;;;22.90
71081;BMP180;58740;50.672;18.690;2022-08-21T09:02:45;98499.20;;;22.96
71081;BMP180;58740;50.672;18.690;2022-08-21T09:11:07;98504.20;;;22.98
71081;BMP180;58740;50.672;18.690;2022-08-21T09:26:17;98512.80;;;23.00
71081;BMP180;58740;50.672;18.690;2022-08-21T09:28:52;98517.00;;;22.98
71081;BMP180;58740;50.672;18.690;2022-08-21T09:31:36;98517.00;;;22.94
71081;BMP180;58740;50.672;18.690;2022-08-21T09:34:10;98518.00;;;22.92
71081;BMP180;58740;50.672;18.690;2022-08-21T09:36:44;98517.60;;;22.90
71081;BMP180;58740;50.672;18.690;2022-08-21T09:42:04;98515.80;;;22.90
71081;BMP180;58740;50.672;18.690;2022-08-21T09:44:39;98517.60;;;22.90
71081;BMP180;58740;50.672;18.690;2022-08-21T09:47:12;98515.20;;;22.90
71081;BMP180;58740;50.672;18.690;2022-08-21T09:49:42;98512.80;;;22.90
71081;BMP180;58740;50.672;18.690;2022-08-21T09:52:29;98511.80;;;22.80
71081;BMP180;58740;50.672;18.690;2022-08-21T09:54:56;98510.60;;;22.80
71081;BMP180;58740;50.672;18.690;2022-08-21T09:57:29;98518.40;;;22.86
71081;BMP180;58740;50.672;18.690;2022-08-21T10:02:50;98518.00;;;22.80
71081;BMP180;58740;50.672;18.690;2022-08-21T10:05:25;98515.60;;;22.80
71081;BMP180;58740;50.672;18.690;2022-08-21T10:07:54;98519.40;;;22.80
71081;BMP180;58740;50.672;18.690;2022-08-21T10:10:36;98518.60;;;22.78
71081;BMP180;58740;50.672;18.690;2022-08-21T10:13:22;98516.20;;;22.80
71081;BMP180;58740;50.672;18.690;2022-08-21T10:21:23;98531.80;;;22.80
71081;BMP180;58740;50.672;18.690;2022-08-21T10:26:36;98521.20;;;22.80
71081;BMP180;58740;50.672;18.690;2022-08-21T10:30:28;98519.80;;;22.80
71081;BMP180;58740;50.672;18.690;2022-08-21T10:33:26;98522.80;;;22.80
71081;BMP180;58740;50.672;18.690;2022-08-21T10:36:22;98526.60;;;22.90
71081;BMP180;58740;50.672;18.690;2022-08-21T10:39:04;98527.20;;;22.90
71081;BMP180;58740;50.672;18.690;2022-08-21T10:47:17;98535.00;;;22.80
71081;BMP180;58740;50.672;18.690;2022-08-21T10:52:56;98537.20;;;22.80
71081;BMP180;58740;50.672;18.690;2022-08-21T10:55:39;98537.40;;;22.80
71081;BMP180;58740;50.672;18.690;2022-08-21T10:58:12;98539.80;;;22.70
71081;BMP180;58740;50.672;18.690;2022-08-21T11:00:49;98538.40;;;22.70
71081;BMP180;58740;50.672;18.690;2022-08-21T11:03:35;98536.20;;;22.70
71081;BMP180;58740;50.672;18.690;2022-08-21T11:06:20;98534.20;;;22.70
71081;BMP180;58740;50.672;18.690;2022-08-21T11:09:21;98538.80;;;22.70
71081;BMP180;58740;50.672;18.690;2022-08-21T11:12:03;98539.80;;;22.70
71081;BMP180;58740;50.672;18.690;2022-08-21T11:14:56;98540.80;;;22.60
71081;BMP180;58740;50.672;18.690;2022-08-21T11:18:00;98544.80;;;22.54
71081;BMP180;58740;50.672;18.690;2022-08-21T11:24:17;98547.00;;;22.50
71081;BMP180;58740;50.672;18.690;2022-08-21T11:29:48;98552.40;;;22.40
71081;BMP180;58740;50.672;18.690;2022-08-21T11:32:56;98555.20;;;22.32
71081;BMP180;58740;50.672;18.690;2022-08-21T11:35:58;98557.40;;;22.30
71081;BMP180;58740;50.672;18.690;2022-08-21T11:38:41;98555.00;;;22.30
71081;BMP180;58740;50.672;18.690;2022-08-21T11:41:30;98556.60;;;22.30
71081;BMP180;58740;50.672;18.690;2022-08-21T11:50:16;98562.60;;;22.30
71081;BMP180;58740;50.672;18.690;2022-08-21T11:53:49;98562.60;;;22.30
71081;BMP180;58740;50.672;18.690;2022-08-21T11:56:31;98559.40;;;22.28
71081;BMP180;58740;50.672;18.690;2022-08-21T11:59:10;98557.60;;;22.28
71081;BMP180;58740;50.672;18.690;2022-08-21T12:01:43;98561.40;;;22.22
71081;BMP180;58740;50.672;18.690;2022-08-21T12:04:46;98561.80;;;22.20
71081;BMP180;58740;50.672;18.690;2022-08-21T12:10:00;98565.60;;;22.14
71081;BMP180;58740;50.672;18.690;2022-08-21T12:12:36;98569.40;;;22.10
71081;BMP180;58740;50.672;18.690;2022-08-21T12:18:00;98568.40;;;22.00
71081;BMP180;58740;50.672;18.690;2022-08-21T12:26:00;98567.00;;;21.96
71081;BMP180;58740;50.672;18.690;2022-08-21T12:28:30;98564.20;;;21.90
71081;BMP180;58740;50.672;18.690;2022-08-21T12:30:59;98568.00;;;21.90
71081;BMP180;58740;50.672;18.690;2022-08-21T12:33:39;98574.00;;;21.80
71081;BMP180;58740;50.672;18.690;2022-08-21T12:36:23;98572.00;;;21.70
71081;BMP180;58740;50.672;18.690;2022-08-21T12:39:10;98567.40;;;21.70
71081;BMP180;58740;50.672;18.690;2022-08-21T12:42:06;98565.40;;;21.70
71081;BMP180;58740;50.672;18.690;2022-08-21T12:44:47;98569.20;;;21.70
71081;BMP180;58740;50.672;18.690;2022-08-21T12:47:26;98572.20;;;21.64
71081;BMP180;58740;50.672;18.690;2022-08-21T12:50:09;98571.20;;;21.60
71081;BMP180;58740;50.672;18.690;2022-08-21T12:52:56;98573.20;;;21.50
71081;BMP180;58740;50.672;18.690;2022-08-21T12:55:33;98578.20;;;21.50
71081;BMP180;58740;50.672;18.690;2022-08-21T12:58:01;98580.20;;;21.50
71081;BMP180;58740;50.672;18.690;2022-08-21T13:00:29;98580.40;;;21.50
71081;BMP180;58740;50.672;18.690;2022-08-21T13:02:58;98577.20;;;21.48
71081;BMP180;58740;50.672;18.690;2022-08-21T13:05:33;98577.40;;;21.40
71081;BMP180;58740;50.672;18.690;2022-08-21T13:08:08;98578.20;;;21.40
71081;BMP180;58740;50.672;18.690;2022-08-21T13:10:47;98581.60;;;21.40
71081;BMP180;58740;50.672;18.690;2022-08-21T13:13:22;98578.40;;;21.40
71081;BMP180;58740;50.672;18.690;2022-08-21T13:15:59;98579.00;;;21.30
71081;BMP180;58740;50.672;18.690;2022-08-21T13:18:32;98579.80;;;21.20
71081;BMP180;58740;50.672;18.690;2022-08-21T13:21:14;98578.80;;;21.20
71081;BMP180;58740;50.672;18.690;2022-08-21T13:23:42;98581.00;;;21.10
71081;BMP180;58740;50.672;18.690;2022-08-21T13:26:20;98579.80;;;21.10
71081;BMP180;58740;50.672;18.690;2022-08-21T13:28:49;98590.20;;;21.04
71081;BMP180;58740;50.672;18.690;2022-08-21T13:31:29;98591.40;;;21.00
71081;BMP180;58740;50.672;18.690;2022-08-21T13:33:59;98595.60;;;20.96
71081;BMP180;58740;50.672;18.690;2022-08-21T13:36:35;98595.00;;;20.90
71081;BMP180;58740;50.672;18.690;2022-08-21T13:39:07;98600.80;;;20.90
71081;BMP180;58740;50.672;18.690;2022-08-21T13:41:40;98602.40;;;20.90
71081;BMP180;58740;50.672;18.690;2022-08-21T13:44:18;98598.00;;;20.80
71081;BMP180;58740;50.672;18.690;2022-08-21T13:46:49;98599.80;;;20.80
71081;BMP180;58740;50.672;18.690;2022-08-21T13:49:25;98605.60;;;20.80
71081;BMP180;58740;50.672;18.690;2022-08-21T13:51:54;98611.20;;;20.80
71081;BMP180;58740;50.672;18.690;2022-08-21T13:54:35;98611.00;;;20.70
71081;BMP180;58740;50.672;18.690;2022-08-21T13:57:04;98613.80;;;20.70
71081;BMP180;58740;50.672;18.690;2022-08-21T13:59:35;98610.60;;;20.70
71081;BMP180;58740;50.672;18.690;2022-08-21T14:02:16;98605.20;;;20.68
71081;BMP180;58740;50.672;18.690;2022-08-21T14:05:01;98607.00;;;20.60
71081;BMP180;58740;50.672;18.690;2022-08-21T14:07:33;98605.80;;;20.60
71081;BMP180;58740;50.672;18.690;2022-08-21T14:10:20;98610.80;;;20.50
71081;BMP180;58740;50.672;18.690;2022-08-21T14:13:04;98611.80;;;20.50
71081;BMP180;58740;50.672;18.690;2022-08-21T14:15:34;98611.40;;;20.50
71081;BMP180;58740;50.672;18.690;2022-08-21T14:18:15;98611.00;;;20.48
71081;BMP180;58740;50.672;18.690;2022-08-21T14:20:44;98606.80;;;20.44
71081;BMP180;58740;50.672;18.690;2022-08-21T14:23:25;98603.80;;;20.40
71081;BMP180;58740;50.672;18.690;2022-08-21T14:26:00;98605.80;;;20.40
71081;BMP180;58740;50.672;18.690;2022-08-21T14:31:20;98608.40;;;20.30
71081;BMP180;58740;50.672;18.690;2022-08-21T14:33:49;98606.00;;;20.30
71081;BMP180;58740;50.672;18.690;2022-08-21T14:36:16;98604.40;;;20.30
71081;BMP180;58740;50.672;18.690;2022-08-21T14:38:44;98606.20;;;20.20
71081;BMP180;58740;50.672;18.690;2022-08-21T14:41:26;98601.40;;;20.20
71081;BMP180;58740;50.672;18.690;2022-08-21T14:43:57;98609.40;;;20.20
71081;BMP180;58740;50.672;18.690;2022-08-21T14:46:36;98608.60;;;20.20
71081;BMP180;58740;50.672;18.690;2022-08-21T14:49:28;98609.80;;;20.20
71081;BMP180;58740;50.672;18.690;2022-08-21T14:51:57;98613.20;;;20.20
71081;BMP180;58740;50.672;18.690;2022-08-21T14:54:29;98615.40;;;20.16
71081;BMP180;58740;50.672;18.690;2022-08-21T14:57:05;98616.80;;;20.10
71081;BMP180;58740;50.672;18.690;2022-08-21T14:59:34;98622.60;;;20.10
71081;BMP180;58740;50.672;18.690;2022-08-21T15:02:04;98624.60;;;20.10
71081;BMP180;58740;50.672;18.690;2022-08-21T15:04:34;98625.00;;;20.12
71081;BMP180;58740;50.672;18.690;2022-08-21T15:07:04;98621.00;;;20.16
71081;BMP180;58740;50.672;18.690;2022-08-21T15:09:31;98617.40;;;20.20
71081;BMP180;58740;50.672;18.690;2022-08-21T15:12:02;98619.00;;;20.20
71081;BMP180;58740;50.672;18.690;2022-08-21T15:14:34;98626.60;;;20.20
71081;BMP180;58740;50.672;18.690;2022-08-21T15:17:06;98629.80;;;20.14
71081;BMP180;58740;50.672;18.690;2022-08-21T15:19:36;98624.00;;;20.12
71081;BMP180;58740;50.672;18.690;2022-08-21T15:22:04;98622.20;;;20.10
71081;BMP180;58740;50.672;18.690;2022-08-21T15:24:42;98624.80;;;20.10
71081;BMP180;58740;50.672;18.690;2022-08-21T15:27:18;98624.40;;;20.02
71081;BMP180;58740;50.672;18.690;2022-08-21T15:29:46;98626.20;;;20.10
71081;BMP180;58740;50.672;18.690;2022-08-21T15:32:23;98627.40;;;20.10
71081;BMP180;58740;50.672;18.690;2022-08-21T15:34:52;98631.80;;;20.08
71081;BMP180;58740;50.672;18.690;2022-08-21T15:37:21;98638.40;;;20.00
71081;BMP180;58740;50.672;18.690;2022-08-21T15:39:51;98630.00;;;20.00